Time;durP1;ratioP1;P1;durP2;ratioP2;P2;SDS_P1;SDS_P2;PMS_P1;PMS_P2;Temp;Humidity;BMP_temperature;BMP_pressure;BME280_temperature;BME280_humidity;BME280_pressure;Samples;Min_cycle;Max_cycle;Signal;HPM_P1;HPM_P2
2022/01/15 00:00:06;;;;;;;10.87;3.57;;;;;;;3.21;100.00;102614.09;4998056;28;20256;-55
2022/01/15 00:02:33;;;;;;;11.03;3.77;;;;;;;3.21;100.00;102611.50;5000203;28;20290;-55
2022/01/15 00:04:59;;;;;;;8.73;3.40;;;;;;;3.19;100.00;102605.31;5002912;28;20275;-55
2022/01/15 00:07:25;;;;;;;7.10;2.57;;;;;;;3.18;100.00;102606.13;4993164;28;20254;-56
2022/01/15 00:09:53;;;;;;;19.47;4.57;;;;;;;3.13;100.00;102596.31;4997064;28;20672;-55
2022/01/15 00:12:19;;;;;;;8.80;3.27;;;;;;;3.11;100.00;102598.78;5003066;28;20268;-55
2022/01/15 00:14:46;;;;;;;13.57;3.50;;;;;;;3.07;100.00;102597.72;4991139;28;20710;-55
2022/01/15 00:17:19;;;;;;;13.23;3.70;;;;;;;3.07;100.00;102604.59;4997260;28;20908;-55
2022/01/15 00:19:46;;;;;;;10.53;3.60;;;;;;;3.03;100.00;102602.63;4991319;28;20299;-57
2022/01/15 00:22:14;;;;;;;12.90;4.03;;;;;;;2.98;100.00;102604.06;4990434;28;20756;-54
2022/01/15 00:24:41;;;;;;;14.27;4.10;;;;;;;2.97;100.00;102599.66;4996676;28;20269;-54
2022/01/15 00:27:09;;;;;;;10.50;3.13;;;;;;;2.92;100.00;102596.81;4997984;28;20251;-55
2022/01/15 00:29:36;;;;;;;12.57;3.57;;;;;;;2.93;100.00;102598.59;5007445;28;20255;-57
2022/01/15 00:32:05;;;;;;;12.43;3.27;;;;;;;2.93;100.00;102600.28;5000471;28;20237;-55
2022/01/15 00:34:32;;;;;;;15.47;4.00;;;;;;;2.89;100.00;102590.53;5004567;28;20260;-54
2022/01/15 00:36:58;;;;;;;13.07;3.73;;;;;;;2.92;100.00;102593.31;4999118;28;20314;-54
2022/01/15 00:39:25;;;;;;;9.93;3.57;;;;;;;2.89;100.00;102595.72;4999658;28;20239;-55
2022/01/15 00:41:51;;;;;;;10.83;3.93;;;;;;;2.90;100.00;102597.50;5001402;28;20232;-56
2022/01/15 00:44:19;;;;;;;13.30;3.20;;;;;;;2.87;100.00;102588.72;4998938;28;20283;-54
2022/01/15 00:46:46;;;;;;;15.70;3.60;;;;;;;2.83;100.00;102594.53;5002952;28;20247;-55
2022/01/15 00:49:12;;;;;;;16.10;4.33;;;;;;;2.81;100.00;102596.16;5001934;28;20286;-62
2022/01/15 00:51:39;;;;;;;12.57;4.30;;;;;;;2.77;100.00;102599.38;4992271;28;20275;-54
2022/01/15 00:54:06;;;;;;;12.10;3.63;;;;;;;2.79;100.00;102597.75;5001432;28;20286;-54
2022/01/15 00:56:32;;;;;;;15.23;3.27;;;;;;;2.84;100.00;102598.94;4988524;28;20268;-55
2022/01/15 00:58:59;;;;;;;13.50;3.40;;;;;;;2.86;100.00;102592.13;5007801;28;20243;-55
2022/01/15 01:01:27;;;;;;;16.17;3.23;;;;;;;2.91;100.00;102584.63;5005437;28;20267;-52
2022/01/15 01:03:53;;;;;;;11.40;3.47;;;;;;;2.97;100.00;102591.88;4991515;28;20299;-54
2022/01/15 01:06:19;;;;;;;14.50;3.80;;;;;;;2.89;100.00;102595.72;5002535;28;20298;-54
2022/01/15 01:08:46;;;;;;;13.60;3.53;;;;;;;2.82;100.00;102592.75;4998912;28;20728;-54
2022/01/15 01:11:14;;;;;;;11.77;5.20;;;;;;;2.73;100.00;102597.38;5005711;28;20236;-56
2022/01/15 01:22:42;;;;;;;15.57;3.30;;;;;;;2.61;100.00;102588.88;4998968;28;20319;-53
2022/01/15 01:24:51;;;;;;;11.93;4.47;;;;;;;2.62;100.00;102594.13;5001658;28;20611;-54
2022/01/15 01:27:23;;;;;;;9.73;3.37;;;;;;;2.77;100.00;102589.00;5004251;28;20294;-54
2022/01/15 01:30:05;;;;;;;10.13;3.53;;;;;;;2.73;100.00;102589.59;4998773;28;20333;-54
2022/01/15 01:32:47;;;;;;;10.37;4.20;;;;;;;2.69;100.00;102582.44;4999309;28;20240;-55
2022/01/15 01:35:17;;;;;;;13.80;3.80;;;;;;;2.68;100.00;102584.97;5006152;28;20247;-55
2022/01/15 01:37:48;;;;;;;11.60;4.30;;;;;;;2.69;100.00;102587.63;5005107;28;20315;-54
2022/01/15 01:40:20;;;;;;;22.90;5.27;;;;;;;2.69;100.00;102594.50;5000760;28;20233;-53
2022/01/15 01:42:57;;;;;;;13.20;3.27;;;;;;;2.65;100.00;102588.25;5003421;28;20243;-55
2022/01/15 01:45:23;;;;;;;8.83;3.83;;;;;;;2.68;100.00;102585.84;5003314;28;20323;-53
2022/01/15 01:47:51;;;;;;;18.10;4.53;;;;;;;2.68;100.00;102584.97;5011059;28;20283;-55
2022/01/15 01:50:20;;;;;;;10.83;3.27;;;;;;;2.70;100.00;102584.22;4996380;28;20244;-57
2022/01/15 01:52:48;;;;;;;17.07;3.70;;;;;;;2.74;100.00;102586.22;5000638;28;20267;-55
2022/01/15 01:55:17;;;;;;;8.10;3.10;;;;;;;2.62;100.00;102590.66;4995137;28;20713;-56
2022/01/15 01:57:44;;;;;;;12.27;3.43;;;;;;;2.59;100.00;102580.09;5002458;28;20259;-54
2022/01/15 02:00:13;;;;;;;17.20;4.30;;;;;;;2.76;100.00;102574.22;5000929;28;20238;-54
2022/01/15 02:02:39;;;;;;;10.10;3.50;;;;;;;2.73;100.00;102574.03;4996406;28;20233;-55
2022/01/15 02:05:08;;;;;;;12.53;3.63;;;;;;;2.64;100.00;102573.50;4997094;28;20336;-56
2022/01/15 02:07:35;;;;;;;9.30;3.87;;;;;;;2.49;100.00;102573.47;4994574;28;20267;-60
2022/01/15 02:10:02;;;;;;;10.40;2.97;;;;;;;2.60;100.00;102574.13;4997801;28;20236;-54
2022/01/15 02:12:28;;;;;;;17.50;3.70;;;;;;;2.57;100.00;102573.94;4998216;28;20265;-57
2022/01/15 02:14:55;;;;;;;18.17;3.67;;;;;;;2.54;100.00;102572.03;5000667;28;20236;-54
2022/01/15 02:17:22;;;;;;;17.83;3.90;;;;;;;2.59;100.00;102570.59;4996168;28;20302;-56
2022/01/15 02:20:10;;;;;;;21.03;3.57;;;;;;;2.49;100.00;102569.94;5003492;28;20240;-56
2022/01/15 02:25:20;;;;;;;20.27;4.43;;;;;;;2.44;100.00;102566.19;5001408;28;20374;-54
2022/01/15 02:27:46;;;;;;;13.00;4.27;;;;;;;2.49;100.00;102567.34;5002716;28;20236;-54
2022/01/15 02:30:14;;;;;;;12.97;3.80;;;;;;;2.43;100.00;102567.00;5003995;28;20236;-60
2022/01/15 02:32:40;;;;;;;14.33;3.93;;;;;;;2.37;100.00;102573.59;5004885;28;20326;-55
2022/01/15 02:35:13;;;;;;;14.23;3.83;;;;;;;2.37;100.00;102565.81;4997937;28;20809;-53
2022/01/15 02:37:39;;;;;;;14.83;4.07;;;;;;;2.45;100.00;102567.97;5001567;28;20308;-55
2022/01/15 02:40:10;;;;;;;11.20;3.60;;;;;;;2.41;100.00;102576.38;4998707;28;20263;-55
2022/01/15 02:42:36;;;;;;;10.10;3.47;;;;;;;2.37;100.00;102576.19;5002148;28;20664;-57
2022/01/15 02:45:05;;;;;;;10.23;4.10;;;;;;;2.28;100.00;102574.69;4996967;28;20252;-54
2022/01/15 02:50:19;;;;;;;14.30;3.83;;;;;;;2.31;100.00;102575.78;4998280;28;20347;-53
2022/01/15 02:52:45;;;;;;;10.63;4.40;;;;;;;2.30;100.00;102570.53;5002111;28;20322;-55
2022/01/15 02:55:12;;;;;;;8.27;3.17;;;;;;;2.24;100.00;102564.97;5003819;28;20321;-55
2022/01/15 02:57:38;;;;;;;15.00;3.87;;;;;;;2.28;100.00;102562.69;4992541;28;20690;-54
2022/01/15 03:00:06;;;;;;;11.33;4.10;;;;;;;2.30;100.00;102555.88;4995413;28;20260;-56
2022/01/15 03:02:33;;;;;;;16.80;3.70;;;;;;;2.26;100.00;102566.84;4999736;28;20315;-55
2022/01/15 03:05:00;;;;;;;12.63;3.10;;;;;;;2.20;100.00;102561.28;5005213;28;20239;-56
2022/01/15 03:07:27;;;;;;;15.23;4.83;;;;;;;2.12;100.00;102575.47;5002484;28;20625;-55
2022/01/15 03:09:54;;;;;;;15.37;3.87;;;;;;;2.15;100.00;102570.47;5003478;28;20261;-55
2022/01/15 03:12:21;;;;;;;17.60;4.07;;;;;;;2.17;100.00;102568.84;4995347;28;20245;-56
2022/01/15 03:14:48;;;;;;;14.63;6.33;;;;;;;2.13;100.00;102556.50;5002015;28;20660;-57
2022/01/15 03:17:15;;;;;;;15.23;4.10;;;;;;;2.06;100.00;102556.94;5002265;28;20263;-54
2022/01/15 03:19:42;;;;;;;8.90;2.83;;;;;;;2.09;100.00;102559.72;5003668;28;20237;-53
2022/01/15 03:22:08;;;;;;;9.53;3.13;;;;;;;1.98;100.00;102555.56;5003204;28;20264;-57
2022/01/15 03:24:36;;;;;;;14.77;4.70;;;;;;;2.07;100.00;102549.28;5001971;28;20240;-56
2022/01/15 03:27:03;;;;;;;10.50;4.20;;;;;;;2.01;100.00;102554.06;5003482;28;20247;-55
2022/01/15 03:29:29;;;;;;;17.60;5.03;;;;;;;2.04;100.00;102558.56;4992652;28;20295;-54
2022/01/15 03:31:55;;;;;;;16.07;3.83;;;;;;;2.05;100.00;102558.63;4998015;28;20237;-56
2022/01/15 03:34:22;;;;;;;14.43;3.27;;;;;;;2.13;100.00;102560.00;4999891;28;20256;-56
2022/01/15 03:36:48;;;;;;;11.07;3.60;;;;;;;2.04;100.00;102550.78;5001653;28;20237;-54
2022/01/15 03:39:14;;;;;;;13.50;3.60;;;;;;;2.03;100.00;102549.84;5013053;28;20602;-55
2022/01/15 03:41:42;;;;;;;19.47;3.67;;;;;;;2.11;100.00;102540.00;5009046;28;20239;-57
2022/01/15 03:44:08;;;;;;;10.57;3.57;;;;;;;2.07;100.00;102533.72;5010594;28;20228;-56
2022/01/15 03:46:35;;;;;;;22.03;4.47;;;;;;;2.14;100.00;102532.38;5019970;28;20222;-55
2022/01/15 03:49:01;;;;;;;10.40;3.10;;;;;;;2.00;100.00;102525.44;5022152;28;20308;-61
2022/01/15 03:51:27;;;;;;;24.17;4.97;;;;;;;2.02;100.00;102535.13;5008208;28;20232;-56
2022/01/15 03:53:54;;;;;;;13.70;3.80;;;;;;;1.98;100.00;102527.06;5018526;28;20707;-56
2022/01/15 03:56:20;;;;;;;13.10;4.23;;;;;;;2.01;100.00;102525.56;5016196;28;20243;-55
2022/01/15 03:58:48;;;;;;;11.70;3.73;;;;;;;1.93;100.00;102526.78;5005655;28;20290;-53
2022/01/15 04:01:14;;;;;;;15.47;3.80;;;;;;;1.95;100.00;102524.28;5005184;28;20283;-54
2022/01/15 04:03:41;;;;;;;13.07;3.20;;;;;;;1.89;100.00;102520.50;5000003;28;20227;-57
2022/01/15 04:06:07;;;;;;;15.40;3.53;;;;;;;1.94;100.00;102504.38;4998538;28;20683;-56
2022/01/15 04:08:34;;;;;;;16.73;3.87;;;;;;;1.91;100.00;102500.78;4998410;28;20582;-54
2022/01/15 04:11:00;;;;;;;18.03;3.60;;;;;;;1.90;100.00;102501.59;5005295;28;20294;-56
2022/01/15 04:13:26;;;;;;;10.03;3.67;;;;;;;1.90;100.00;102511.94;5001264;28;20296;-56
2022/01/15 04:15:54;;;;;;;17.17;4.70;;;;;;;1.88;100.00;102503.16;4996950;28;20756;-56
2022/01/15 04:18:21;;;;;;;9.10;3.40;;;;;;;1.84;100.00;102508.97;4994155;28;20257;-62
2022/01/15 04:20:47;;;;;;;16.20;3.63;;;;;;;1.80;100.00;102501.81;5002733;28;20244;-54
2022/01/15 04:23:14;;;;;;;15.13;3.97;;;;;;;1.77;100.00;102500.72;4999426;28;20310;-55
2022/01/15 04:25:40;;;;;;;17.23;5.30;;;;;;;1.76;100.00;102494.66;5016042;28;20240;-58
2022/01/15 04:28:09;;;;;;;14.20;4.23;;;;;;;1.69;100.00;102495.06;5007611;28;20237;-56
2022/01/15 04:30:36;;;;;;;15.43;3.63;;;;;;;1.64;100.00;102491.28;5001226;28;20243;-56
2022/01/15 04:33:04;;;;;;;12.20;4.37;;;;;;;1.67;100.00;102488.88;5005879;28;20894;-55
2022/01/15 04:35:30;;;;;;;13.90;3.53;;;;;;;1.61;100.00;102480.72;5002151;28;20259;-56
2022/01/15 04:38:03;;;;;;;14.13;3.87;;;;;;;1.61;100.00;102473.84;5004712;28;20291;-55
2022/01/15 04:40:29;;;;;;;14.00;3.43;;;;;;;1.52;100.00;102482.75;5003666;28;20235;-57
2022/01/15 04:42:56;;;;;;;12.57;5.33;;;;;;;1.54;100.00;102483.72;4999514;28;20229;-54
2022/01/15 04:45:22;;;;;;;11.30;4.03;;;;;;;1.50;100.00;102490.38;4999224;28;20249;-55
2022/01/15 04:47:48;;;;;;;15.63;4.30;;;;;;;1.50;100.00;102486.91;4998720;28;20710;-54
2022/01/15 04:50:17;;;;;;;17.23;4.77;;;;;;;1.48;100.00;102486.81;5005083;28;20259;-59
2022/01/15 04:52:44;;;;;;;23.63;4.53;;;;;;;1.52;100.00;102485.31;5020178;28;20252;-63
2022/01/15 04:55:11;;;;;;;17.33;4.43;;;;;;;1.57;100.00;102504.63;5025539;28;20294;-58
2022/01/15 04:57:38;;;;;;;11.20;4.27;;;;;;;1.55;100.00;102501.06;5013798;28;20236;-55
2022/01/15 05:00:06;;;;;;;12.90;4.47;;;;;;;1.60;100.00;102500.53;5016357;28;20232;-55
2022/01/15 05:02:32;;;;;;;12.23;3.53;;;;;;;1.70;100.00;102496.84;5007212;28;20233;-55
2022/01/15 05:04:58;;;;;;;19.13;4.57;;;;;;;1.67;100.00;102502.72;5007046;28;20252;-55
2022/01/15 05:07:26;;;;;;;15.37;4.80;;;;;;;1.71;100.00;102498.63;5010905;28;20240;-53
2022/01/15 05:09:52;;;;;;;21.57;5.37;;;;;;;1.65;100.00;102506.00;5003948;28;20264;-55
2022/01/15 05:12:27;;;;;;;19.60;5.50;;;;;;;1.70;100.00;102512.38;5002871;28;20257;-54
2022/01/15 05:14:54;;;;;;;13.80;5.30;;;;;;;1.73;100.00;102512.56;5004130;28;20223;-54
2022/01/15 05:17:20;;;;;;;12.13;5.43;;;;;;;1.76;100.00;102517.06;5006597;28;20251;-55
2022/01/15 05:19:47;;;;;;;23.00;6.70;;;;;;;1.79;100.00;102512.97;5002869;28;20646;-55
2022/01/15 05:22:13;;;;;;;21.97;6.63;;;;;;;1.66;100.00;102513.88;4993148;28;20906;-54
2022/01/15 05:24:41;;;;;;;18.40;5.63;;;;;;;1.59;100.00;102526.34;5007766;28;20676;-56
2022/01/15 05:27:07;;;;;;;14.27;5.17;;;;;;;1.59;100.00;102531.50;5001702;28;20885;-55
2022/01/15 05:29:33;;;;;;;16.47;5.67;;;;;;;1.64;100.00;102535.28;4996569;28;20240;-55
2022/01/15 05:32:00;;;;;;;22.53;6.23;;;;;;;1.61;100.00;102529.91;4996919;28;20294;-54
2022/01/15 05:34:26;;;;;;;22.00;5.90;;;;;;;1.58;100.00;102532.28;4999706;28;20344;-57
2022/01/15 05:36:52;;;;;;;16.23;5.63;;;;;;;1.64;100.00;102541.34;5006515;28;20645;-56
2022/01/15 05:39:19;;;;;;;13.70;5.30;;;;;;;1.65;100.00;102542.25;5004912;28;20294;-54
2022/01/15 05:41:46;;;;;;;21.07;5.90;;;;;;;1.72;100.00;102541.88;4998034;28;20694;-55
2022/01/15 05:44:13;;;;;;;13.60;5.63;;;;;;;1.75;100.00;102536.84;5006426;28;20374;-54
2022/01/15 05:46:39;;;;;;;19.03;6.50;;;;;;;1.71;100.00;102536.56;5003868;28;20248;-55
2022/01/15 05:49:05;;;;;;;19.37;5.57;;;;;;;1.65;100.00;102539.66;5000743;28;20240;-54
2022/01/15 05:51:32;;;;;;;17.33;5.90;;;;;;;1.68;100.00;102539.84;5001506;28;20260;-56
2022/01/15 05:53:59;;;;;;;18.37;6.97;;;;;;;1.65;100.00;102540.56;4996950;28;20232;-56
2022/01/15 05:56:25;;;;;;;15.60;4.90;;;;;;;1.66;100.00;102541.47;5007203;28;20697;-55
2022/01/15 05:58:53;;;;;;;13.40;5.03;;;;;;;1.55;100.00;102537.28;5004005;28;20244;-60
2022/01/15 06:01:19;;;;;;;20.43;4.80;;;;;;;1.57;100.00;102536.56;5009134;28;20263;-55
2022/01/15 06:03:45;;;;;;;12.07;4.43;;;;;;;1.58;100.00;102542.63;5004211;28;20295;-54
2022/01/15 06:06:12;;;;;;;10.73;4.20;;;;;;;1.48;100.00;102537.69;4995502;28;20610;-55
2022/01/15 06:08:38;;;;;;;15.83;4.63;;;;;;;1.47;100.00;102539.34;5003111;28;20791;-54
2022/01/15 06:11:05;;;;;;;21.83;5.70;;;;;;;1.52;100.00;102537.97;5005477;28;20268;-56
2022/01/15 06:13:31;;;;;;;20.90;6.17;;;;;;;1.59;100.00;102536.69;4997660;28;20251;-54
2022/01/15 06:15:59;;;;;;;22.67;5.93;;;;;;;1.50;100.00;102541.25;4997691;28;20263;-55
2022/01/15 06:18:25;;;;;;;15.47;5.93;;;;;;;1.38;100.00;102544.84;4995611;28;20805;-54
2022/01/15 06:20:51;;;;;;;19.17;5.37;;;;;;;1.45;100.00;102529.72;5001648;28;20305;-56
2022/01/15 06:23:18;;;;;;;20.53;5.07;;;;;;;1.51;100.00;102531.03;4997769;28;20699;-57
2022/01/15 06:25:44;;;;;;;21.67;5.63;;;;;;;1.55;100.00;102529.53;4996728;28;20323;-58
2022/01/15 06:28:10;;;;;;;13.33;5.50;;;;;;;1.50;100.00;102529.22;5003996;28;20287;-56
2022/01/15 06:30:36;;;;;;;26.10;6.80;;;;;;;1.46;100.00;102523.75;5004429;28;20280;-56
2022/01/15 06:33:04;;;;;;;18.93;6.17;;;;;;;1.50;100.00;102516.28;5003740;28;20233;-55
2022/01/15 06:35:30;;;;;;;14.77;4.93;;;;;;;1.46;100.00;102523.75;5004475;28;20313;-55
2022/01/15 06:37:57;;;;;;;17.87;6.43;;;;;;;1.49;100.00;102523.94;4999132;28;20395;-57
2022/01/15 06:40:23;;;;;;;20.83;6.27;;;;;;;1.36;100.00;102520.56;4997624;28;20325;-53
2022/01/15 06:42:49;;;;;;;19.83;6.90;;;;;;;1.46;100.00;102526.34;4995091;28;20233;-54
2022/01/15 06:45:16;;;;;;;17.27;6.73;;;;;;;1.38;100.00;102534.50;4997628;28;20371;-56
2022/01/15 06:47:42;;;;;;;22.70;6.63;;;;;;;1.42;100.00;102536.47;5004075;28;20263;-53
2022/01/15 06:50:11;;;;;;;17.10;6.47;;;;;;;1.53;100.00;102537.19;5003221;28;20658;-55
2022/01/15 06:52:37;;;;;;;18.37;6.67;;;;;;;1.54;100.00;102538.97;4989046;28;20773;-55
2022/01/15 06:55:05;;;;;;;17.83;7.17;;;;;;;1.56;100.00;102546.84;5003077;28;20268;-55
2022/01/15 06:57:31;;;;;;;16.43;6.17;;;;;;;1.57;100.00;102548.63;4999440;28;20237;-57
2022/01/15 06:59:57;;;;;;;17.67;5.63;;;;;;;1.53;100.00;102546.63;5002012;28;20813;-54
2022/01/15 07:02:24;;;;;;;25.57;7.00;;;;;;;1.54;100.00;102556.19;4997105;28;20273;-54
2022/01/15 07:04:50;;;;;;;27.27;6.47;;;;;;;1.41;100.00;102555.41;5001806;28;20272;-55
2022/01/15 07:07:18;;;;;;;19.20;5.63;;;;;;;1.45;100.00;102553.91;4994175;28;20790;-58
2022/01/15 07:09:44;;;;;;;24.17;6.33;;;;;;;1.46;100.00;102552.22;4999309;28;20968;-56
2022/01/15 07:12:11;;;;;;;19.83;6.30;;;;;;;1.41;100.00;102550.22;4999875;28;20279;-56
2022/01/15 07:14:37;;;;;;;26.20;6.60;;;;;;;1.47;100.00;102548.81;4992185;28;20666;-55
2022/01/15 07:17:04;;;;;;;18.10;5.93;;;;;;;1.50;100.00;102555.09;4999498;28;20269;-57
2022/01/15 07:19:31;;;;;;;16.33;5.90;;;;;;;1.50;100.00;102556.78;4991819;28;20265;-53
2022/01/15 07:21:58;;;;;;;20.70;7.60;;;;;;;1.52;100.00;102565.56;4997521;28;20240;-55
2022/01/15 07:24:25;;;;;;;17.33;6.27;;;;;;;1.46;100.00;102568.63;4988919;28;20237;-55
2022/01/15 07:26:52;;;;;;;21.40;8.10;;;;;;;1.39;100.00;102575.09;4997296;28;20272;-55
2022/01/15 07:29:18;;;;;;;13.77;6.53;;;;;;;1.37;100.00;102575.78;4995543;28;20237;-56
2022/01/15 07:31:47;;;;;;;23.90;7.80;;;;;;;1.35;100.00;102575.69;4989596;28;20236;-54
2022/01/15 07:34:13;;;;;;;25.83;7.13;;;;;;;1.38;100.00;102578.50;4999430;28;20244;-55
2022/01/15 07:36:40;;;;;;;19.70;7.20;;;;;;;1.35;100.00;102583.47;4997018;28;20237;-56
2022/01/15 07:39:08;;;;;;;14.53;6.10;;;;;;;1.28;100.00;102589.03;4998292;28;20263;-55
2022/01/15 07:41:36;;;;;;;19.50;6.53;;;;;;;1.43;100.00;102584.84;4995025;28;20640;-55
2022/01/15 07:44:03;;;;;;;16.43;6.77;;;;;;;1.47;100.00;102575.59;5000875;28;20965;-54
2022/01/15 07:46:29;;;;;;;21.63;6.60;;;;;;;1.33;100.00;102585.03;5001652;28;21068;-56
2022/01/15 07:48:55;;;;;;;12.90;5.90;;;;;;;1.47;100.00;102595.41;4998449;28;20646;-55
2022/01/15 07:51:22;;;;;;;18.30;6.47;;;;;;;1.37;100.00;102579.28;5003946;28;20604;-54
2022/01/15 07:53:48;;;;;;;16.33;6.60;;;;;;;1.40;100.00;102595.03;5000559;28;20730;-55
2022/01/15 07:56:14;;;;;;;20.80;7.47;;;;;;;1.38;100.00;102588.84;5001437;28;20271;-55
2022/01/15 07:58:42;;;;;;;18.53;5.83;;;;;;;1.46;100.00;102591.94;4996761;28;20262;-55
2022/01/15 08:01:08;;;;;;;18.27;7.33;;;;;;;1.46;100.00;102594.53;4995949;28;20236;-53
2022/01/15 08:03:35;;;;;;;13.53;6.10;;;;;;;1.42;100.00;102601.19;5005790;28;20261;-57
2022/01/15 08:06:01;;;;;;;12.93;5.23;;;;;;;1.45;100.00;102599.59;5001622;28;20232;-55
2022/01/15 08:08:27;;;;;;;12.73;5.90;;;;;;;1.40;100.00;102594.09;4993678;28;20290;-53
2022/01/15 08:10:54;;;;;;;14.17;5.43;;;;;;;1.32;100.00;102591.00;5007548;28;20274;-55
2022/01/15 08:13:20;;;;;;;14.23;6.27;;;;;;;1.25;100.00;102591.41;5011737;28;20298;-56
2022/01/15 08:15:50;;;;;;;16.77;5.93;;;;;;;1.43;100.00;102582.25;5010246;28;20734;-56
2022/01/15 08:18:18;;;;;;;18.23;5.90;;;;;;;1.29;100.00;102593.41;5009485;28;20295;-52
2022/01/15 08:20:45;;;;;;;11.77;5.97;;;;;;;1.33;100.00;102595.38;5011813;28;20231;-55
2022/01/15 08:23:11;;;;;;;19.97;6.20;;;;;;;1.38;100.00;102596.59;5007244;28;20251;-58
2022/01/15 08:25:38;;;;;;;9.63;5.20;;;;;;;1.54;100.00;102597.59;5002046;28;20692;-56
2022/01/15 08:28:04;;;;;;;12.33;5.20;;;;;;;1.59;100.00;102596.22;5006252;28;20713;-55
2022/01/15 08:30:31;;;;;;;13.53;5.27;;;;;;;1.58;100.00;102589.25;5005956;28;20240;-52
2022/01/15 08:32:58;;;;;;;15.73;5.73;;;;;;;1.65;100.00;102601.78;5010860;28;20313;-53
2022/01/15 08:35:25;;;;;;;12.83;5.77;;;;;;;1.65;100.00;102600.13;5009525;28;20268;-52
2022/01/15 08:37:53;;;;;;;12.60;5.10;;;;;;;1.63;100.00;102593.94;5010610;28;20256;-53
2022/01/15 08:40:20;;;;;;;16.37;5.20;;;;;;;1.61;100.00;102599.78;5009140;28;20330;-54
2022/01/15 08:42:47;;;;;;;16.57;4.93;;;;;;;1.57;100.00;102603.88;4998587;28;20224;-55
2022/01/15 08:45:14;;;;;;;16.63;5.60;;;;;;;1.57;100.00;102606.47;5002312;28;20247;-54
2022/01/15 08:47:41;;;;;;;17.20;6.50;;;;;;;1.64;100.00;102605.19;5001929;28;20237;-53
2022/01/15 08:50:12;;;;;;;13.07;6.17;;;;;;;1.62;100.00;102607.69;5006987;28;20232;-56
2022/01/15 08:52:39;;;;;;;18.73;5.93;;;;;;;1.62;100.00;102601.63;4995907;28;20318;-52
2022/01/15 08:55:06;;;;;;;17.57;6.23;;;;;;;1.74;100.00;102602.41;5004756;28;20369;-55
2022/01/15 08:57:33;;;;;;;10.23;4.90;;;;;;;1.80;100.00;102612.25;5006521;28;20236;-53
2022/01/15 09:00:00;;;;;;;14.17;6.87;;;;;;;1.81;100.00;102609.75;4998245;28;20236;-53
2022/01/15 09:02:27;;;;;;;17.47;5.80;;;;;;;1.79;100.00;102613.03;5008234;28;20264;-52
2022/01/15 09:04:53;;;;;;;17.60;5.97;;;;;;;1.78;100.00;102617.31;5000948;28;20243;-54
2022/01/15 09:07:21;;;;;;;25.83;6.40;;;;;;;2.01;100.00;102617.94;4993827;28;20268;-54
2022/01/15 09:09:47;;;;;;;22.97;8.47;;;;;;;1.95;100.00;102613.25;4999734;28;20233;-54
2022/01/15 09:12:15;;;;;;;21.53;6.63;;;;;;;1.92;100.00;102620.81;5002211;28;20241;-53
2022/01/15 09:14:41;;;;;;;17.03;6.33;;;;;;;1.92;100.00;102615.63;4992907;28;20294;-52
2022/01/15 09:17:08;;;;;;;19.27;8.13;;;;;;;2.01;100.00;102621.41;4999562;28;20239;-54
2022/01/15 09:19:34;;;;;;;16.73;6.27;;;;;;;2.01;100.00;102620.53;4994726;28;20236;-55
2022/01/15 09:22:01;;;;;;;14.70;6.03;;;;;;;2.13;100.00;102623.88;5005124;28;20240;-52
2022/01/15 09:24:28;;;;;;;18.53;6.17;;;;;;;2.12;100.00;102627.28;5011170;28;21373;-53
2022/01/15 09:30:11;;;;;;;11.53;6.03;;;;;;;2.08;100.00;102618.41;5017640;28;20233;-55
2022/01/15 09:32:31;;;;;;;14.30;5.83;;;;;;;2.06;100.00;102622.59;5004274;28;20989;-52
2022/01/15 09:34:57;;;;;;;15.93;6.00;;;;;;;2.11;100.00;102626.38;5002381;28;20267;-53
2022/01/15 09:37:23;;;;;;;22.23;5.93;;;;;;;2.12;100.00;102632.47;4999236;28;20901;-53
2022/01/15 09:39:51;;;;;;;18.37;7.17;;;;;;;1.90;100.00;102630.19;4990088;28;20260;-54
2022/01/15 09:42:17;;;;;;;17.70;6.77;;;;;;;1.96;100.00;102624.50;4998619;28;20290;-55
2022/01/15 09:44:46;;;;;;;21.00;8.57;;;;;;;1.74;100.00;102628.28;4994613;28;20355;-54
2022/01/15 09:47:13;;;;;;;19.37;7.13;;;;;;;1.87;100.00;102625.69;5003495;28;20251;-53
2022/01/15 09:49:41;;;;;;;16.83;7.20;;;;;;;1.84;100.00;102617.72;5006492;28;20240;-55
2022/01/15 09:52:08;;;;;;;19.80;6.33;;;;;;;1.79;100.00;102624.31;4998281;28;20228;-54
2022/01/15 09:54:34;;;;;;;14.43;6.07;;;;;;;1.89;100.00;102618.03;4992070;28;20267;-53
2022/01/15 09:57:02;;;;;;;16.83;7.23;;;;;;;1.88;100.00;102622.31;5001111;28;20261;-54
2022/01/15 09:59:28;;;;;;;14.57;7.73;;;;;;;1.91;100.00;102619.91;4994131;28;20736;-54
2022/01/15 10:01:55;;;;;;;19.87;6.77;;;;;;;1.95;100.00;102613.25;4995690;28;20232;-55
2022/01/15 10:04:22;;;;;;;17.23;6.93;;;;;;;2.00;100.00;102618.69;4998376;28;20240;-58
2022/01/15 10:07:11;;;;;;;15.73;6.30;;;;;;;2.08;100.00;102620.13;5004080;28;20240;-54
2022/01/15 10:09:38;;;;;;;16.90;7.50;;;;;;;2.20;100.00;102615.69;5000688;28;20417;-56
2022/01/15 10:12:07;;;;;;;15.47;6.50;;;;;;;2.19;100.00;102618.19;5001386;28;20329;-53
2022/01/15 10:14:38;;;;;;;15.77;7.23;;;;;;;2.10;100.00;102628.84;4995428;28;20249;-56
2022/01/15 10:17:20;;;;;;;17.90;6.83;;;;;;;2.08;100.00;102625.28;5000352;28;20228;-58
2022/01/15 10:19:46;;;;;;;17.00;7.03;;;;;;;2.15;100.00;102617.13;4992300;28;20236;-54
2022/01/15 10:22:15;;;;;;;22.87;7.80;;;;;;;2.12;100.00;102611.72;5000706;28;20224;-53
2022/01/15 10:24:53;;;;;;;13.40;6.97;;;;;;;2.16;100.00;102608.53;4997420;28;20240;-57
2022/01/15 10:27:23;;;;;;;11.60;6.50;;;;;;;2.20;100.00;102610.50;4992678;28;20248;-59
2022/01/15 10:29:55;;;;;;;17.53;7.70;;;;;;;2.09;100.00;102611.53;4998284;28;20682;-57
2022/01/15 10:32:22;;;;;;;18.13;7.53;;;;;;;2.03;100.00;102616.31;5004298;28;20270;-58
2022/01/15 10:34:48;;;;;;;14.43;7.13;;;;;;;2.05;100.00;102609.56;5015844;28;20236;-58
2022/01/15 10:37:16;;;;;;;15.37;6.47;;;;;;;2.02;100.00;102599.88;5017385;28;20274;-57
2022/01/15 10:39:59;;;;;;;11.50;5.30;;;;;;;2.06;100.00;102600.97;5006767;28;20260;-56
2022/01/15 10:42:27;;;;;;;21.43;7.40;;;;;;;2.20;100.00;102601.84;5000198;28;20233;-55
2022/01/15 10:44:55;;;;;;;15.83;6.80;;;;;;;2.21;100.00;102598.44;4991081;28;20327;-54
2022/01/15 10:47:23;;;;;;;16.40;6.60;;;;;;;2.16;100.00;102613.72;4996138;28;20268;-54
2022/01/15 10:49:49;;;;;;;17.13;6.97;;;;;;;2.16;100.00;102608.53;4995539;28;20241;-55
2022/01/15 10:52:17;;;;;;;15.73;7.07;;;;;;;2.18;100.00;102595.66;4992184;28;20233;-54
2022/01/15 10:54:53;;;;;;;17.27;6.33;;;;;;;2.02;100.00;102597.28;4995928;28;20237;-59
2022/01/15 10:57:21;;;;;;;25.07;10.33;;;;;;;2.26;100.00;102579.81;4993319;28;20717;-54
2022/01/15 11:00:06;;;;;;;25.37;9.17;;;;;;;2.26;100.00;102579.81;4995533;28;20293;-56
2022/01/15 11:02:33;;;;;;;17.77;8.70;;;;;;;2.30;100.00;102566.22;4993576;28;20243;-54
2022/01/15 11:04:59;;;;;;;23.93;8.53;;;;;;;2.22;100.00;102562.28;4994491;28;20259;-55
2022/01/15 11:07:26;;;;;;;16.07;8.70;;;;;;;2.06;100.00;102562.13;4995571;28;20263;-53
2022/01/15 11:09:53;;;;;;;23.70;10.83;;;;;;;1.90;100.00;102563.75;4993207;28;20753;-51
2022/01/15 11:12:20;;;;;;;20.27;10.40;;;;;;;1.67;100.00;102566.53;4996673;28;20248;-56
2022/01/15 11:14:46;;;;;;;23.07;11.87;;;;;;;2.02;100.00;102565.31;4993191;28;20287;-54
2022/01/15 11:17:14;;;;;;;25.40;9.67;;;;;;;2.13;100.00;102564.28;4999579;28;20297;-53
2022/01/15 11:19:44;;;;;;;19.67;9.77;;;;;;;2.35;100.00;102559.66;4996950;28;20232;-54
2022/01/15 11:22:11;;;;;;;13.67;9.37;;;;;;;2.24;100.00;102558.06;4997809;28;20260;-55
2022/01/15 11:24:38;;;;;;;16.60;9.80;;;;;;;2.27;100.00;102553.09;4994774;28;20307;-54
2022/01/15 11:27:05;;;;;;;11.53;6.17;;;;;;;1.90;100.00;102553.38;4994954;28;20291;-56
2022/01/15 11:29:32;;;;;;;17.07;7.47;;;;;;;2.05;100.00;102562.91;4989948;28;20287;-54
2022/01/15 11:32:00;;;;;;;16.93;7.43;;;;;;;2.18;100.00;102555.13;4997806;28;20705;-52
2022/01/15 11:34:28;;;;;;;15.00;8.00;;;;;;;1.82;100.00;102556.28;4995159;28;20241;-53